Terminal Aerodrome Forecast
Issued by NWS Mt. Holly, NJ

Home | Current Version | Previous Version | Text Only | Print | Product List | Glossary On
Versions: 1 2 3 4 5 6 7 8 9 10 11 12 13 14
000
FTUS41 KPHI 220522
TAFTTN
TAF
KTTN 220522Z 2206/2306 VRB03KT P6SM SCT070 BKN250
      TEMPO 2207/2211 5SM BR SCT007
     FM221300 23006KT P6SM SCT035
     FM221800 23011KT P6SM SCT050 BKN250
     FM230000 22011KT P6SM BKN050 PROB30 2300/2306 4SM -TSRA
      OVC035CB=

USA.gov is the U.S. government's official web portal to all federal, state and local government web resources and services.